createdAt,value
2023-01-04T00:00:02.612Z,7.29
2023-01-04T00:07:01.803Z,7.61
2023-01-04T00:14:02.249Z,7.73
2023-01-04T00:21:01.388Z,7.73
2023-01-04T00:28:01.612Z,7.56
2023-01-04T00:35:02.128Z,7.56
2023-01-04T00:42:02.265Z,8.01
2023-01-04T00:49:02.054Z,8.01
2023-01-04T00:56:02.157Z,8.16
2023-01-04T01:00:01.732Z,8.16
2023-01-04T01:07:01.840Z,7.68
2023-01-04T01:14:01.980Z,7.68
2023-01-04T01:21:02.207Z,8.3
2023-01-04T01:28:02.197Z,8.3
2023-01-04T01:35:01.723Z,8.28
2023-01-04T01:42:02.236Z,8.28
2023-01-04T01:49:02.169Z,8.32
2023-01-04T01:56:01.592Z,8.2
2023-01-04T02:00:02.223Z,8.2
2023-01-04T02:07:02.076Z,8.2
2023-01-04T02:14:02.089Z,8.17
2023-01-04T02:21:01.489Z,8.17
2023-01-04T02:28:01.954Z,8.21
2023-01-04T02:35:02.589Z,8.13
2023-01-04T02:42:01.619Z,8.13
2023-01-04T02:49:02.223Z,8.12
2023-01-04T02:56:01.385Z,8.12
2023-01-04T03:00:02.026Z,8.22
2023-01-04T03:07:01.555Z,8.22
2023-01-04T03:14:01.868Z,8.12
2023-01-04T03:21:02.043Z,8.12
2023-01-04T03:28:01.647Z,8.12
2023-01-04T03:35:01.868Z,8.12
2023-01-04T03:42:01.628Z,8.5
2023-01-04T03:49:01.505Z,8.5
2023-01-04T03:56:01.937Z,8.5
2023-01-04T04:00:02.625Z,8.5
2023-01-04T04:07:01.424Z,8.5
2023-01-04T04:49:01.333Z,9.75
2023-01-04T04:56:02.065Z,9.75
2023-01-04T05:00:01.675Z,9.75
2023-01-04T05:07:03.350Z,9.75
2023-01-04T05:14:01.367Z,9.75
2023-01-04T05:56:02.293Z,10.03
2023-01-04T06:00:01.904Z,10.03
2023-01-04T06:07:01.746Z,10.03
2023-01-04T06:14:01.844Z,10.03
2023-01-04T06:21:01.379Z,10.03
2023-01-04T06:35:01.834Z,10.28
2023-01-04T06:42:06.580Z,10.28
2023-01-04T06:49:01.368Z,10.28
2023-01-04T06:56:02.087Z,10.28
2023-01-04T07:00:01.781Z,10.33
2023-01-04T07:07:01.911Z,10.33
2023-01-04T07:14:01.751Z,10.33
2023-01-04T07:21:02.265Z,10.33
2023-01-04T07:28:01.706Z,10.09
2023-01-04T07:35:01.668Z,10.09
2023-01-04T07:42:01.568Z,10.44
2023-01-04T07:49:02.179Z,10.39
2023-01-04T07:56:01.832Z,10.39
2023-01-04T08:00:02.362Z,10.39
2023-01-04T08:07:01.418Z,10.75
2023-01-04T08:14:02.103Z,10.75
2023-01-04T08:21:01.674Z,10.74
2023-01-04T08:28:01.609Z,10.74
2023-01-04T08:35:01.785Z,10.74
2023-01-04T08:42:14.341Z,10.84
2023-01-04T08:49:01.497Z,10.84
2023-01-04T08:56:01.355Z,10.84
2023-01-04T09:00:01.887Z,10.84
2023-01-04T09:07:01.895Z,10.84
2023-01-04T10:07:05.247Z,11.43
2023-01-04T10:14:01.969Z,11.59
2023-01-04T10:21:31.442Z,11.59
2023-01-04T10:28:01.972Z,11.59
2023-01-04T10:35:02.105Z,11.59
2023-01-04T10:42:01.708Z,11.59
2023-01-04T11:49:01.502Z,11.43
2023-01-04T11:56:01.373Z,11.43
2023-01-04T12:00:02.005Z,11.41
2023-01-04T12:07:01.612Z,11.41
2023-01-04T12:14:01.913Z,11.41
2023-01-04T12:21:02.073Z,11.41
2023-01-04T12:28:01.485Z,11.56
2023-01-04T12:35:01.931Z,11.56
2023-01-04T12:42:01.936Z,11.58
2023-01-04T12:49:01.413Z,11.58
2023-01-04T12:56:01.646Z,11.51
2023-01-04T13:00:02.212Z,11.51
2023-01-04T13:07:01.318Z,11.52
2023-01-04T13:14:02.197Z,11.52
2023-01-04T13:21:02.080Z,11.52
2023-01-04T13:28:01.883Z,11.52
2023-01-04T13:35:06.873Z,11.63
2023-01-04T13:42:02.277Z,11.65
2023-01-04T13:49:01.664Z,11.65
2023-01-04T13:56:01.496Z,11.69
2023-01-04T14:00:02.137Z,11.69
2023-01-04T14:07:01.946Z,11.69
2023-01-04T14:14:02.209Z,11.77
2023-01-04T14:21:01.975Z,11.77
2023-01-04T14:28:01.717Z,11.77
2023-01-04T14:35:01.751Z,11.88
2023-01-04T14:42:01.749Z,11.88
2023-01-04T14:49:01.428Z,11.82
2023-01-04T14:56:01.920Z,11.82
2023-01-04T15:00:02.514Z,11.92
2023-01-04T15:07:01.495Z,11.92
2023-01-04T15:14:01.593Z,11.92
2023-01-04T15:21:02.231Z,11.92
2023-01-04T15:28:02.289Z,11.92
2023-01-04T15:42:01.785Z,12.22
2023-01-04T15:49:01.908Z,12.22
2023-01-04T15:56:01.871Z,12.22
2023-01-04T16:00:02.460Z,12.22
2023-01-04T16:07:02.100Z,12.22
2023-01-04T16:21:02.055Z,12.16
2023-01-04T16:28:01.665Z,12.16
2023-01-04T16:35:01.966Z,12.03
2023-01-04T16:42:07.104Z,12.03
2023-01-04T16:49:01.921Z,11.9
2023-01-04T16:56:01.784Z,11.9
2023-01-04T17:00:02.392Z,11.81
2023-01-04T17:07:01.851Z,11.81
2023-01-04T17:14:01.984Z,11.73
2023-01-04T17:21:31.499Z,11.73
2023-01-04T17:28:01.670Z,11.8
2023-01-04T17:35:02.134Z,11.8
2023-01-04T17:42:01.764Z,11.71
2023-01-04T17:49:23.011Z,11.71
2023-01-04T17:56:01.409Z,11.71
2023-01-04T18:00:02.092Z,11.71
2023-01-04T18:07:01.849Z,11.65
2023-01-04T18:14:05.784Z,11.64
2023-01-04T18:21:05.728Z,11.64
2023-01-04T18:28:01.823Z,11.59
2023-01-04T18:35:01.581Z,11.59
2023-01-04T18:42:02.000Z,11.6
2023-01-04T18:49:02.200Z,11.6
2023-01-04T18:56:01.594Z,11.78
2023-01-04T19:00:02.173Z,11.78
2023-01-04T19:07:01.609Z,11.65
2023-01-04T19:14:01.841Z,11.65
2023-01-04T19:21:01.965Z,11.35
2023-01-04T19:28:01.499Z,11.35
2023-01-04T19:35:02.365Z,11.52
2023-01-04T19:42:02.305Z,11.52
2023-01-04T19:49:02.087Z,11.65
2023-01-04T19:56:01.866Z,11.65
2023-01-04T20:00:02.409Z,11.43
2023-01-04T20:07:01.335Z,11.43
2023-01-04T20:14:01.367Z,11.69
2023-01-04T20:21:02.225Z,11.69
2023-01-04T20:28:01.391Z,11.8
2023-01-04T20:35:01.978Z,11.8
2023-01-04T20:42:01.820Z,11.73
2023-01-04T20:49:01.949Z,11.52
2023-01-04T20:56:02.017Z,11.52
2023-01-04T21:00:01.653Z,11.52
2023-01-04T21:07:01.584Z,11.76
2023-01-04T21:14:01.446Z,11.74
2023-01-04T21:21:01.434Z,11.74
2023-01-04T21:28:01.702Z,11.25
2023-01-04T21:35:01.862Z,11.25
2023-01-04T21:42:02.043Z,11.64
2023-01-04T21:49:02.262Z,11.64
2023-01-04T21:56:01.505Z,11.68
2023-01-04T22:00:02.128Z,11.68
2023-01-04T22:07:02.125Z,11.41
2023-01-04T22:14:02.262Z,11.41
2023-01-04T22:21:01.546Z,11.69
2023-01-04T22:28:01.714Z,11.69
2023-01-04T22:35:01.829Z,11.63
2023-01-04T22:42:02.195Z,11.63
2023-01-04T22:49:02.274Z,11.56
2023-01-04T22:56:18.871Z,11.56
2023-01-04T23:00:02.425Z,11.59
2023-01-04T23:07:01.621Z,11.59
2023-01-04T23:14:02.014Z,11.51
2023-01-04T23:21:01.966Z,11.51
2023-01-04T23:28:01.896Z,11.23
2023-01-04T23:35:02.449Z,11.23
2023-01-04T23:42:01.833Z,11.46
2023-01-04T23:49:02.079Z,11.35
2023-01-04T23:56:01.567Z,11.35
